Terminal Aerodrome Forecast
Issued by NWS Louisville, KY

Home | Current Version | Previous Version | Text Only | Print | Product List | Glossary On
Versions: 1 2 3 4 5 6 7 8 9 10 11 12 13 14
000
FTUS43 KLMK 180500
TAFSDF
TAF
KSDF 180607Z 1806/1912 VRB03KT P6SM SKC
     FM181500 08008KT P6SM SCT250
     FM190400 10006KT P6SM SCT070 BKN150
     FM190700 10006KT P6SM -SHRA BKN050=

USA.gov is the U.S. government's official web portal to all federal, state and local government web resources and services.